createdAt,value
2023-01-29T00:01:43.533Z,102816.94
2023-01-29T00:04:29.978Z,102809.69
2023-01-29T00:07:16.600Z,102806.53
2023-01-29T00:10:03.093Z,102813.31
2023-01-29T00:12:49.450Z,102811.69
2023-01-29T00:15:37.432Z,102796.72
2023-01-29T00:18:24.572Z,102795.44
2023-01-29T00:21:11.948Z,102794.50
2023-01-29T00:23:59.141Z,102785.50
2023-01-29T00:26:45.732Z,102784.41
2023-01-29T00:29:32.099Z,102781.84
2023-01-29T00:32:20.014Z,102777.53
2023-01-29T00:35:07.423Z,102777.31
2023-01-29T00:37:55.688Z,102784.44
2023-01-29T00:41:00.850Z,102794.44
2023-01-29T00:44:05.186Z,102794.03
2023-01-29T00:46:52.037Z,102805.41
2023-01-29T00:49:40.304Z,102799.47
2023-01-29T00:52:26.669Z,102803.47
2023-01-29T00:55:13.383Z,102786.16
2023-01-29T00:57:59.838Z,102790.78
2023-01-29T01:00:46.340Z,102785.72
2023-01-29T01:03:35.120Z,102790.34
2023-01-29T01:06:23.026Z,102783.69
2023-01-29T01:09:29.015Z,102776.38
2023-01-29T01:12:15.441Z,102778.63
2023-01-29T01:15:01.958Z,102764.63
2023-01-29T01:17:49.575Z,102760.34
2023-01-29T01:20:37.152Z,102762.34
2023-01-29T01:23:25.060Z,102764.53
2023-01-29T01:26:11.896Z,102766.03
2023-01-29T01:28:58.431Z,102768.97
2023-01-29T01:31:45.656Z,102775.72
2023-01-29T01:34:32.486Z,102776.25
2023-01-29T01:37:19.046Z,102786.13
2023-01-29T01:40:12.851Z,102775.94
2023-01-29T01:43:00.778Z,102772.06
2023-01-29T01:45:48.388Z,102774.56
2023-01-29T01:48:35.148Z,102763.34
2023-01-29T01:51:25.191Z,102763.41
2023-01-29T01:54:16.676Z,102749.66
2023-01-29T01:57:15.763Z,102754.47
2023-01-29T02:00:11.062Z,102769.66
2023-01-29T02:03:19.929Z,102768.72
2023-01-29T02:06:28.202Z,102759.81
2023-01-29T02:09:36.911Z,102758.75
2023-01-29T02:12:24.984Z,102759.47
2023-01-29T02:15:12.663Z,102770.44
2023-01-29T02:17:59.597Z,102769.59
2023-01-29T02:20:52.006Z,102763.13
2023-01-29T02:24:06.888Z,102763.78
2023-01-29T02:27:10.279Z,102756.56
2023-01-29T02:30:04.315Z,102749.38
2023-01-29T02:32:58.539Z,102750.22
2023-01-29T02:35:54.057Z,102742.50
2023-01-29T02:38:46.709Z,102734.19
2023-01-29T02:41:38.809Z,102741.31
2023-01-29T02:44:34.973Z,102754.09
2023-01-29T02:47:28.037Z,102754.13
2023-01-29T02:50:21.001Z,102758.81
2023-01-29T02:53:14.792Z,102757.34
2023-01-29T02:56:08.622Z,102758.63
2023-01-29T02:59:01.794Z,102760.00
2023-01-29T03:01:52.846Z,102764.47
2023-01-29T03:04:46.461Z,102751.50
2023-01-29T03:07:43.990Z,102761.75
2023-01-29T03:10:40.411Z,102756.03
2023-01-29T03:13:35.240Z,102749.06
2023-01-29T03:16:27.502Z,102760.91
2023-01-29T03:19:17.699Z,102754.88
2023-01-29T03:22:08.540Z,102746.16
2023-01-29T03:25:16.703Z,102740.97
2023-01-29T03:28:27.101Z,102737.34
2023-01-29T03:31:34.836Z,102742.44
2023-01-29T03:34:28.485Z,102736.25
2023-01-29T03:37:21.764Z,102733.69
2023-01-29T03:40:10.049Z,102720.13
2023-01-29T03:43:06.708Z,102721.72
2023-01-29T03:46:01.562Z,102700.22
2023-01-29T03:48:56.381Z,102703.97
2023-01-29T03:51:54.459Z,102699.28
2023-01-29T03:54:52.621Z,102707.59
2023-01-29T03:57:45.462Z,102698.75
2023-01-29T04:00:41.115Z,102708.50
2023-01-29T04:03:33.718Z,102696.66
2023-01-29T04:06:25.518Z,102692.31
2023-01-29T04:09:23.613Z,102688.91
2023-01-29T04:12:14.552Z,102698.28
2023-01-29T04:15:06.694Z,102680.09
2023-01-29T04:17:54.002Z,102678.97
2023-01-29T04:20:48.549Z,102680.03
2023-01-29T04:23:35.213Z,102663.59
2023-01-29T04:26:50.703Z,102676.38
2023-01-29T04:29:51.815Z,102675.81
2023-01-29T04:32:50.999Z,102670.19
2023-01-29T04:35:50.110Z,102679.78
2023-01-29T04:38:48.480Z,102667.78
2023-01-29T04:41:43.839Z,102676.47
2023-01-29T04:44:40.176Z,102674.81
2023-01-29T04:47:36.188Z,102674.81
2023-01-29T04:50:29.832Z,102661.66
2023-01-29T04:53:24.732Z,102663.81
2023-01-29T04:56:19.263Z,102658.88
2023-01-29T04:59:10.310Z,102660.81
2023-01-29T05:01:57.066Z,102665.19
2023-01-29T05:04:46.970Z,102650.00
2023-01-29T05:07:36.951Z,102658.38
2023-01-29T05:10:25.260Z,102648.28
2023-01-29T05:13:15.743Z,102650.09
2023-01-29T05:16:07.551Z,102650.28
2023-01-29T05:18:54.927Z,102651.25
2023-01-29T05:21:45.410Z,102651.47
2023-01-29T05:24:31.650Z,102656.28
2023-01-29T05:27:39.577Z,102661.34
2023-01-29T05:30:26.128Z,102665.72
2023-01-29T05:33:15.265Z,102673.19
2023-01-29T05:36:01.442Z,102660.50
2023-01-29T05:38:49.829Z,102673.59
2023-01-29T05:41:36.455Z,102662.44
2023-01-29T05:44:22.938Z,102655.63
2023-01-29T05:47:09.432Z,102652.13
2023-01-29T05:49:56.102Z,102661.31
2023-01-29T05:52:42.956Z,102665.34
2023-01-29T05:55:30.554Z,102669.41
2023-01-29T05:58:19.592Z,102669.97
2023-01-29T06:01:11.524Z,102677.38
2023-01-29T06:03:58.128Z,102669.59
2023-01-29T06:06:44.724Z,102661.91
2023-01-29T06:09:31.184Z,102653.75
2023-01-29T06:12:19.174Z,102654.13
2023-01-29T06:15:06.734Z,102665.00
2023-01-29T06:17:54.827Z,102653.84
2023-01-29T06:20:41.703Z,102640.63
2023-01-29T06:23:28.379Z,102636.34
2023-01-29T06:26:16.666Z,102647.25
2023-01-29T06:29:04.479Z,102628.06
2023-01-29T06:31:51.058Z,102632.22
2023-01-29T06:34:37.576Z,102627.97
2023-01-29T06:37:24.117Z,102634.03
2023-01-29T06:40:12.111Z,102625.81
2023-01-29T06:42:58.393Z,102628.06
2023-01-29T06:45:50.084Z,102632.47
2023-01-29T06:48:36.910Z,102625.72
2023-01-29T06:51:23.350Z,102625.47
2023-01-29T06:54:10.437Z,102621.06
2023-01-29T06:56:57.010Z,102621.63
2023-01-29T06:59:43.732Z,102637.59
2023-01-29T07:02:31.635Z,102638.38
2023-01-29T07:05:18.078Z,102631.41
2023-01-29T07:08:05.381Z,102630.00
2023-01-29T07:10:52.335Z,102631.53
2023-01-29T07:13:38.767Z,102630.56
2023-01-29T07:16:26.260Z,102625.25
2023-01-29T07:19:14.699Z,102630.00
2023-01-29T07:22:02.446Z,102626.78
2023-01-29T07:24:48.890Z,102636.13
2023-01-29T07:27:35.649Z,102632.91
2023-01-29T07:30:22.549Z,102640.94
2023-01-29T07:33:10.142Z,102635.59
2023-01-29T07:35:58.161Z,102634.63
2023-01-29T07:38:44.990Z,102631.63
2023-01-29T07:41:31.348Z,102651.81
2023-01-29T07:44:19.407Z,102640.22
2023-01-29T07:47:06.576Z,102641.16
2023-01-29T07:49:53.057Z,102643.66
2023-01-29T07:52:40.948Z,102632.38
2023-01-29T07:55:28.063Z,102620.53
2023-01-29T07:58:14.674Z,102621.06
2023-01-29T08:01:01.272Z,102613.75
2023-01-29T08:03:50.047Z,102608.28
2023-01-29T08:06:37.264Z,102602.84
2023-01-29T08:09:25.193Z,102600.78
2023-01-29T08:12:11.700Z,102594.69
2023-01-29T08:14:58.348Z,102591.78
2023-01-29T08:17:57.230Z,102594.66
2023-01-29T08:20:44.534Z,102587.34
2023-01-29T08:23:31.665Z,102589.50
2023-01-29T08:26:20.029Z,102592.78
2023-01-29T08:29:08.809Z,102595.31
2023-01-29T08:31:55.419Z,102595.41
2023-01-29T08:34:42.181Z,102587.88
2023-01-29T08:37:28.939Z,102587.91
2023-01-29T08:40:16.057Z,102592.66
2023-01-29T08:43:08.735Z,102586.38
2023-01-29T08:45:55.883Z,102587.16
2023-01-29T08:48:42.367Z,102588.31
2023-01-29T08:51:29.061Z,102577.53
2023-01-29T08:54:15.833Z,102582.69
2023-01-29T08:57:02.487Z,102575.75
2023-01-29T08:59:50.619Z,102574.03
2023-01-29T09:02:37.295Z,102565.13
2023-01-29T09:05:23.880Z,102564.44
2023-01-29T09:08:11.116Z,102569.97
2023-01-29T09:10:59.807Z,102572.81
2023-01-29T09:13:46.362Z,102580.59
2023-01-29T09:16:34.263Z,102576.16
2023-01-29T09:19:20.785Z,102587.84
2023-01-29T09:22:07.343Z,102587.22
2023-01-29T09:24:53.905Z,102589.69
2023-01-29T09:27:40.602Z,102583.78
2023-01-29T09:30:27.396Z,102583.97
2023-01-29T09:33:15.222Z,102580.47
2023-01-29T09:36:03.587Z,102583.53
2023-01-29T09:38:49.855Z,102593.44
2023-01-29T09:41:51.546Z,102591.84
2023-01-29T09:44:55.739Z,102595.63
2023-01-29T09:47:44.248Z,102601.25
2023-01-29T09:50:37.431Z,102597.78
2023-01-29T09:53:32.596Z,102591.34
2023-01-29T09:56:22.227Z,102598.03
2023-01-29T09:59:13.812Z,102595.09
2023-01-29T10:02:11.140Z,102604.69
2023-01-29T10:05:24.173Z,102605.53
2023-01-29T10:08:35.599Z,102606.41
2023-01-29T10:11:33.159Z,102600.91
2023-01-29T10:14:31.880Z,102571.28
2023-01-29T10:17:34.048Z,102557.63
2023-01-29T10:20:39.259Z,102555.91
2023-01-29T10:23:32.806Z,102580.19
2023-01-29T10:26:25.237Z,102584.34
2023-01-29T10:29:19.145Z,102602.94
2023-01-29T10:32:06.272Z,102607.16
2023-01-29T10:34:57.437Z,102608.00
2023-01-29T10:37:44.454Z,102600.94
2023-01-29T10:40:43.113Z,102607.88
2023-01-29T10:43:38.175Z,102598.91
2023-01-29T10:46:37.844Z,102596.41
2023-01-29T10:49:42.990Z,102584.81
2023-01-29T10:52:42.604Z,102590.56
2023-01-29T10:55:42.000Z,102575.16
2023-01-29T10:58:35.134Z,102554.31
2023-01-29T11:01:21.641Z,102546.88
2023-01-29T11:04:12.791Z,102530.78
2023-01-29T11:07:00.435Z,102535.53
2023-01-29T11:09:53.138Z,102518.38
2023-01-29T11:12:43.774Z,102506.72
2023-01-29T11:15:33.394Z,102507.41
2023-01-29T11:18:19.962Z,102499.72
2023-01-29T11:21:07.330Z,102500.16
2023-01-29T11:24:08.658Z,102496.28
2023-01-29T11:26:58.253Z,102493.28
2023-01-29T11:29:47.135Z,102494.28
2023-01-29T11:32:35.991Z,102489.84
2023-01-29T11:35:25.437Z,102482.16
2023-01-29T11:38:22.610Z,102493.50
2023-01-29T11:41:18.121Z,102480.31
2023-01-29T11:44:19.179Z,102470.63
2023-01-29T11:47:18.246Z,102464.34
2023-01-29T11:50:06.059Z,102463.41
2023-01-29T11:52:52.886Z,102455.34
2023-01-29T11:55:50.230Z,102458.31
2023-01-29T11:58:37.498Z,102460.63
2023-01-29T12:01:34.342Z,102459.59
2023-01-29T12:04:25.604Z,102445.47
2023-01-29T12:07:15.413Z,102449.28
2023-01-29T12:10:01.941Z,102436.16
2023-01-29T12:12:49.535Z,102439.91
2023-01-29T12:15:36.862Z,102412.75
2023-01-29T12:18:30.856Z,102413.97
2023-01-29T12:21:27.976Z,102399.13
2023-01-29T12:24:30.634Z,102385.63
2023-01-29T12:27:25.804Z,102382.06
2023-01-29T12:30:18.775Z,102371.56
2023-01-29T12:33:12.697Z,102362.31
2023-01-29T12:36:10.768Z,102366.84
2023-01-29T12:38:59.653Z,102363.66
2023-01-29T12:41:52.339Z,102357.31
2023-01-29T12:44:44.978Z,102353.88
2023-01-29T12:47:35.353Z,102347.75
2023-01-29T12:50:25.421Z,102337.72
2023-01-29T12:53:26.453Z,102336.38
2023-01-29T12:56:20.308Z,102326.59
2023-01-29T12:59:15.293Z,102322.91
2023-01-29T13:02:15.998Z,102301.16
2023-01-29T13:05:11.293Z,102295.19
2023-01-29T13:08:04.030Z,102279.59
2023-01-29T13:10:53.935Z,102266.47
2023-01-29T13:13:54.092Z,102250.03
2023-01-29T13:16:44.757Z,102232.81
2023-01-29T13:19:37.313Z,102230.09
2023-01-29T13:22:27.119Z,102220.88
2023-01-29T13:25:17.072Z,102218.97
2023-01-29T13:28:03.836Z,102213.28
2023-01-29T13:31:14.406Z,102220.47
2023-01-29T13:34:08.481Z,102217.00
2023-01-29T13:36:56.890Z,102212.91
2023-01-29T13:39:49.865Z,102207.38
2023-01-29T13:42:43.595Z,102203.84
2023-01-29T13:45:35.423Z,102198.84
2023-01-29T13:48:28.287Z,102202.81
2023-01-29T13:51:20.138Z,102206.56
2023-01-29T13:54:16.955Z,102195.44
2023-01-29T13:57:03.608Z,102203.50
2023-01-29T13:59:53.159Z,102192.81
2023-01-29T14:02:39.862Z,102196.66
2023-01-29T14:05:41.806Z,102186.75
2023-01-29T14:08:40.438Z,102183.38
2023-01-29T14:11:36.729Z,102178.31
2023-01-29T14:14:52.174Z,102178.50
2023-01-29T14:17:40.164Z,102172.38
2023-01-29T14:20:45.220Z,102181.28
2023-01-29T14:23:41.964Z,102161.56
2023-01-29T14:26:32.085Z,102169.81
2023-01-29T14:29:33.856Z,102164.88
2023-01-29T14:32:24.894Z,102166.81
2023-01-29T14:35:19.408Z,102161.34
2023-01-29T14:38:07.637Z,102158.97
2023-01-29T14:41:05.825Z,102168.13
2023-01-29T14:43:52.340Z,102157.63
2023-01-29T14:46:45.697Z,102154.47
2023-01-29T14:49:51.999Z,102151.97
2023-01-29T14:52:42.791Z,102152.53
2023-01-29T14:55:36.712Z,102143.13
2023-01-29T14:58:34.058Z,102134.66
2023-01-29T15:01:24.505Z,102131.53
2023-01-29T15:04:19.412Z,102125.09
2023-01-29T15:07:16.107Z,102116.50
2023-01-29T15:10:21.836Z,102116.81
2023-01-29T15:13:17.246Z,102117.66
2023-01-29T15:16:11.860Z,102117.38
2023-01-29T15:19:12.617Z,102104.81
2023-01-29T15:22:07.175Z,102093.81
2023-01-29T15:25:07.295Z,102090.00
2023-01-29T15:27:55.714Z,102088.47
2023-01-29T15:30:43.594Z,102101.63
2023-01-29T15:33:33.111Z,102094.47
2023-01-29T15:36:22.445Z,102081.47
2023-01-29T15:39:27.764Z,102082.09
2023-01-29T15:42:21.716Z,102078.69
2023-01-29T15:45:22.635Z,102075.84
2023-01-29T15:48:14.711Z,102069.41
2023-01-29T15:51:05.015Z,102072.44
2023-01-29T15:53:54.791Z,102068.03
2023-01-29T15:56:44.079Z,102054.91
2023-01-29T15:59:58.837Z,102034.59
2023-01-29T16:02:45.377Z,102036.16
2023-01-29T16:05:33.811Z,102065.53
2023-01-29T16:08:22.837Z,102044.13
2023-01-29T16:11:10.433Z,102037.44
2023-01-29T16:13:57.990Z,102049.75
2023-01-29T16:16:45.979Z,102049.97
2023-01-29T16:19:32.643Z,102038.88
2023-01-29T16:22:19.081Z,102035.53
2023-01-29T16:25:12.321Z,102035.59
2023-01-29T16:27:58.892Z,102034.69
2023-01-29T16:30:45.819Z,102026.47
2023-01-29T16:33:35.489Z,102033.50
2023-01-29T16:36:24.506Z,102021.44
2023-01-29T16:39:20.208Z,102018.94
2023-01-29T16:42:38.471Z,102014.31
2023-01-29T16:45:29.180Z,102008.22
2023-01-29T16:48:28.461Z,102004.50
2023-01-29T16:51:22.186Z,102002.03
2023-01-29T16:54:16.063Z,101997.19
2023-01-29T16:57:03.319Z,101990.69
2023-01-29T16:59:55.033Z,101998.09
2023-01-29T17:02:41.367Z,101988.59
2023-01-29T17:05:31.503Z,101992.09
2023-01-29T17:08:23.611Z,101994.06
2023-01-29T17:11:13.580Z,101978.69
2023-01-29T17:14:00.946Z,101993.19
2023-01-29T17:16:55.441Z,101993.72
2023-01-29T17:19:42.585Z,101985.97
2023-01-29T17:22:29.320Z,101982.50
2023-01-29T17:25:17.028Z,101983.47
2023-01-29T17:28:04.658Z,101981.13
2023-01-29T17:31:05.157Z,101976.44
2023-01-29T17:33:53.391Z,101978.84
2023-01-29T17:36:40.296Z,101975.69
2023-01-29T17:39:26.643Z,101976.53
2023-01-29T17:42:15.147Z,101978.44
2023-01-29T17:45:01.607Z,101976.03
2023-01-29T17:47:48.040Z,101969.19
2023-01-29T17:50:38.272Z,101951.81
2023-01-29T17:53:30.489Z,101947.00
2023-01-29T17:56:27.454Z,101938.31
2023-01-29T17:59:17.088Z,101938.59
2023-01-29T18:02:03.559Z,101930.63
2023-01-29T18:04:50.977Z,101927.22
2023-01-29T18:07:39.585Z,101913.09
2023-01-29T18:10:26.608Z,101914.53
2023-01-29T18:13:12.863Z,101902.69
2023-01-29T18:15:59.560Z,101898.88
2023-01-29T18:18:46.217Z,101899.81
2023-01-29T18:21:32.608Z,101899.03
2023-01-29T18:24:21.119Z,101884.38
2023-01-29T18:27:07.445Z,101890.69
2023-01-29T18:29:54.015Z,101883.53
2023-01-29T18:32:40.497Z,101875.28
2023-01-29T18:35:28.758Z,101872.03
2023-01-29T18:38:15.225Z,101879.88
2023-01-29T18:41:10.422Z,101862.81
2023-01-29T18:43:56.462Z,101858.13
2023-01-29T18:46:43.066Z,101846.53
2023-01-29T18:49:29.616Z,101833.88
2023-01-29T18:52:17.269Z,101829.22
2023-01-29T18:55:03.710Z,101819.69
2023-01-29T18:58:25.134Z,101815.94
2023-01-29T19:01:01.811Z,101819.47
2023-01-29T19:03:48.379Z,101812.41
2023-01-29T19:06:37.075Z,101804.41
2023-01-29T19:09:24.277Z,101794.25
2023-01-29T19:12:10.986Z,101793.69
2023-01-29T19:14:58.758Z,101784.91
2023-01-29T19:17:45.257Z,101769.91
2023-01-29T19:20:32.028Z,101760.03
2023-01-29T19:23:18.674Z,101756.28
2023-01-29T19:26:05.268Z,101760.22
2023-01-29T19:28:51.680Z,101773.91
2023-01-29T19:31:39.515Z,101764.44
2023-01-29T19:34:26.809Z,101760.88
2023-01-29T19:37:14.429Z,101759.53
2023-01-29T19:40:01.033Z,101761.53
2023-01-29T19:42:47.712Z,101769.22
2023-01-29T19:45:49.234Z,101763.56
2023-01-29T19:48:38.360Z,101757.22
2023-01-29T19:51:24.869Z,101753.59
2023-01-29T19:54:11.623Z,101753.72
2023-01-29T19:56:58.191Z,101756.28
2023-01-29T19:59:45.941Z,101742.13
2023-01-29T20:02:33.291Z,101733.41
2023-01-29T20:05:21.578Z,101740.97
2023-01-29T20:08:08.337Z,101750.78
2023-01-29T20:10:54.790Z,101748.56
2023-01-29T20:13:41.398Z,101738.78
2023-01-29T20:16:28.091Z,101734.59
2023-01-29T20:19:15.258Z,101718.56
2023-01-29T20:22:03.203Z,101720.66
2023-01-29T20:24:49.679Z,101709.94
2023-01-29T20:27:36.484Z,101723.81
2023-01-29T20:30:22.944Z,101719.69
2023-01-29T20:33:10.258Z,101722.31
2023-01-29T20:35:57.549Z,101725.13
2023-01-29T20:38:45.980Z,101712.22
2023-01-29T20:41:32.730Z,101723.59
2023-01-29T20:44:20.267Z,101737.09
2023-01-29T20:47:06.796Z,101736.84
2023-01-29T20:49:53.328Z,101730.28
2023-01-29T20:52:41.227Z,101731.25
2023-01-29T20:55:29.733Z,101727.28
2023-01-29T20:58:16.324Z,101739.78
2023-01-29T21:01:08.254Z,101735.81
2023-01-29T21:03:55.095Z,101730.91
2023-01-29T21:06:41.447Z,101720.94
2023-01-29T21:09:28.036Z,101714.75
2023-01-29T21:12:16.361Z,101728.09
2023-01-29T21:15:04.085Z,101732.38
2023-01-29T21:17:52.368Z,101727.47
2023-01-29T21:20:38.729Z,101722.78
2023-01-29T21:23:25.309Z,101734.66
2023-01-29T21:26:11.871Z,101737.28
2023-01-29T21:28:59.780Z,101747.63
2023-01-29T21:31:46.699Z,101768.94
2023-01-29T21:34:33.014Z,101756.72
2023-01-29T21:37:19.495Z,101759.03
2023-01-29T21:40:07.768Z,101742.53
2023-01-29T21:43:12.704Z,101739.81
2023-01-29T21:46:03.827Z,101767.22
2023-01-29T21:48:50.203Z,101737.25
2023-01-29T21:51:36.975Z,101727.53
2023-01-29T21:54:23.474Z,101717.22
2023-01-29T21:57:14.879Z,101707.44
2023-01-29T22:00:01.614Z,101698.75
2023-01-29T22:02:52.919Z,101678.38
2023-01-29T22:05:39.492Z,101671.47
2023-01-29T22:08:26.149Z,101688.44
2023-01-29T22:11:13.137Z,101675.88
2023-01-29T22:14:00.042Z,101678.78
2023-01-29T22:16:46.765Z,101717.13
2023-01-29T22:19:34.455Z,101731.16
2023-01-29T22:22:21.015Z,101725.06
2023-01-29T22:25:08.494Z,101711.09
2023-01-29T22:27:54.966Z,101725.75
2023-01-29T22:30:41.745Z,101748.28
2023-01-29T22:33:28.381Z,101751.81
2023-01-29T22:36:16.219Z,101762.63
2023-01-29T22:39:02.975Z,101753.53
2023-01-29T22:41:49.327Z,101755.72
2023-01-29T22:44:35.878Z,101760.41
2023-01-29T22:47:22.359Z,101775.31
2023-01-29T22:50:09.975Z,101777.25
2023-01-29T22:52:57.535Z,101782.50
2023-01-29T22:55:43.907Z,101778.56
2023-01-29T22:58:30.590Z,101791.19
2023-01-29T23:04:47.613Z,101818.94
2023-01-29T23:07:34.375Z,101833.09
2023-01-29T23:10:22.182Z,101846.16
2023-01-29T23:13:08.512Z,101844.44
2023-01-29T23:15:59.350Z,101840.44
2023-01-29T23:18:49.769Z,101840.63
2023-01-29T23:21:36.196Z,101846.72
2023-01-29T23:24:22.735Z,101857.09
2023-01-29T23:27:16.524Z,101865.19
2023-01-29T23:30:03.220Z,101864.34
2023-01-29T23:32:49.849Z,101855.84
2023-01-29T23:35:36.293Z,101868.63
2023-01-29T23:38:22.605Z,101872.47
2023-01-29T23:41:09.072Z,101866.78
2023-01-29T23:43:56.861Z,101857.09
2023-01-29T23:46:43.631Z,101872.13
2023-01-29T23:49:30.380Z,101865.16
2023-01-29T23:52:16.594Z,101872.38
2023-01-29T23:55:02.996Z,101879.81
2023-01-29T23:57:49.574Z,101885.19
